Time;durP1;ratioP1;P1;durP2;ratioP2;P2;SDS_P1;SDS_P2;PMS_P1;PMS_P2;Temp;Humidity;BMP_temperature;BMP_pressure;BME280_temperature;BME280_humidity;BME280_pressure;Samples;Min_cycle;Max_cycle;Signal;HPM_P1;HPM_P2
2022/08/13 00:00:10;;;;;;;6.20;3.08;;;;;;;21.39;41.97;101514.97;4906410;29;20035;-42
2022/08/13 00:02:36;;;;;;;9.05;3.20;;;;;;;21.37;42.64;101519.72;4918837;29;20461;-43
2022/08/13 00:05:05;;;;;;;4.20;2.88;;;;;;;21.35;42.55;101521.75;4918503;29;20024;-42
2022/08/13 00:07:30;;;;;;;;;;;;;;;21.47;40.29;101527.66;4918327;29;20032;-41
2022/08/13 00:09:58;;;;;;;6.75;2.97;;;;;;;21.31;41.81;101520.41;4918550;29;19911;-41
2022/08/13 00:15:20;;;;;;;4.45;2.90;;;;;;;21.17;42.20;101526.53;4918279;29;20039;-42
2022/08/13 00:17:50;;;;;;;8.68;3.08;;;;;;;21.10;43.05;101520.09;4916879;29;20115;-40
2022/08/13 00:20:18;;;;;;;6.43;3.08;;;;;;;21.08;42.60;101517.56;4918504;29;20032;-41
2022/08/13 00:22:43;;;;;;;7.90;3.00;;;;;;;21.11;41.92;101519.91;4918087;29;20119;-41
2022/08/13 00:25:10;;;;;;;9.38;3.42;;;;;;;21.04;43.02;101521.63;4917703;29;20024;-41
2022/08/13 00:27:35;;;;;;;10.10;3.13;;;;;;;21.00;42.55;101523.81;4911997;29;20035;-42
2022/08/13 00:30:05;;;;;;;7.00;3.30;;;;;;;20.95;42.74;101520.78;4910902;29;20102;-41
2022/08/13 00:32:30;;;;;;;5.05;3.10;;;;;;;20.91;43.37;101524.81;4918068;29;20075;-41
2022/08/13 00:34:57;;;;;;;5.68;2.95;;;;;;;20.91;42.60;101518.59;4910662;29;20040;-43
2022/08/13 00:37:25;;;;;;;5.93;3.40;;;;;;;20.90;43.31;101520.47;4917900;29;20055;-41
2022/08/13 00:39:51;;;;;;;5.18;2.85;;;;;;;20.88;43.69;101523.31;4917515;29;20036;-41
2022/08/13 00:42:21;;;;;;;4.80;3.03;;;;;;;20.82;43.96;101520.47;4912826;29;20036;-42
2022/08/13 00:44:47;;;;;;;5.65;2.97;;;;;;;20.79;43.77;101527.03;4912553;29;20021;-42
2022/08/13 00:50:07;;;;;;;5.60;3.20;;;;;;;20.76;43.81;101519.25;4879824;29;20445;-41
2022/08/13 00:52:38;;;;;;;4.85;3.15;;;;;;;20.65;43.83;101522.28;4954403;23;20139;-79
2022/08/13 00:55:08;;;;;;;6.35;3.00;;;;;;;20.60;44.60;101520.06;4925422;29;20118;-81
2022/08/13 00:57:35;;;;;;;8.45;3.00;;;;;;;20.58;44.50;101523.94;4919848;29;20039;-80
2022/08/13 01:00:13;;;;;;;7.13;3.03;;;;;;;20.48;44.82;101526.78;4919284;29;20036;-81
2022/08/13 01:02:46;;;;;;;6.00;3.47;;;;;;;20.49;44.98;101528.47;4918888;29;20094;-80
2022/08/13 01:05:12;;;;;;;6.25;3.17;;;;;;;20.44;44.80;101518.19;4918660;29;20036;-81
2022/08/13 01:07:43;;;;;;;7.55;3.13;;;;;;;20.38;45.14;101524.22;4930676;29;20040;-81
2022/08/13 01:10:10;;;;;;;9.77;3.13;;;;;;;20.34;45.43;101528.28;4919004;29;20028;-81
2022/08/13 01:12:37;;;;;;;5.18;2.97;;;;;;;20.32;45.20;101524.91;4916556;29;20039;-80
2022/08/13 01:15:05;;;;;;;6.53;3.58;;;;;;;20.25;45.46;101532.81;4919346;29;20036;-80
2022/08/13 01:17:31;;;;;;;9.02;3.55;;;;;;;20.28;45.75;101518.16;4921208;29;20040;-78
2022/08/13 01:19:57;;;;;;;8.45;3.35;;;;;;;20.25;45.57;101518.47;4919046;29;20020;-78
2022/08/13 01:22:24;;;;;;;8.95;3.28;;;;;;;20.22;45.79;101529.63;4913795;29;20032;-81
2022/08/13 01:24:50;;;;;;;7.50;3.35;;;;;;;20.14;46.28;101525.03;4935311;29;20023;-79
2022/08/13 01:27:20;;;;;;;4.88;3.40;;;;;;;20.09;46.28;101532.78;4918498;29;20039;-79
2022/08/13 01:29:47;;;;;;;6.28;3.70;;;;;;;20.00;46.45;101529.22;4917374;29;20560;-80
2022/08/13 01:32:15;;;;;;;5.97;3.33;;;;;;;19.99;46.38;101532.06;4920692;29;20082;-79
2022/08/13 01:34:48;;;;;;;5.65;3.55;;;;;;;19.97;46.20;101532.22;4933228;29;20032;-80
2022/08/13 01:37:14;;;;;;;5.55;3.30;;;;;;;19.94;46.54;101528.00;4924553;29;20035;-80
2022/08/13 01:39:40;;;;;;;6.97;3.50;;;;;;;19.91;47.17;101531.00;4939247;29;20031;-79
2022/08/13 01:42:16;;;;;;;9.43;3.55;;;;;;;19.82;46.97;101542.78;4925522;29;20039;-80
2022/08/13 01:44:43;;;;;;;4.53;3.38;;;;;;;19.82;47.34;101526.59;4927432;29;20028;-80
2022/08/13 01:52:40;;;;;;;6.88;3.60;;;;;;;19.76;47.04;101533.47;4901163;29;20059;-79
2022/08/13 01:55:06;;;;;;;6.28;3.60;;;;;;;19.73;47.46;101522.13;4906148;29;20060;-80
2022/08/13 01:57:33;;;;;;;7.10;3.35;;;;;;;19.71;46.90;101526.84;4906558;29;20018;-80
2022/08/13 02:00:05;;;;;;;6.32;3.58;;;;;;;19.67;47.40;101529.03;4896593;29;20032;-80
2022/08/13 02:02:31;;;;;;;8.02;3.80;;;;;;;19.60;47.96;101525.25;4916992;29;20028;-80
2022/08/13 02:04:56;;;;;;;7.43;3.50;;;;;;;19.56;47.68;101526.59;4901535;29;20414;-80
2022/08/13 02:07:22;;;;;;;3.47;2.85;;;;;;;19.53;48.21;101521.53;4912273;29;20421;-80
2022/08/13 02:09:47;;;;;;;7.63;3.42;;;;;;;19.53;47.89;101518.84;4909551;29;20067;-80
2022/08/13 02:12:14;;;;;;;3.50;3.13;;;;;;;19.49;47.70;101518.31;4912598;29;20039;-80
2022/08/13 02:14:42;;;;;;;6.38;3.40;;;;;;;19.42;48.12;101526.19;4909426;29;20474;-80
2022/08/13 02:17:24;;;;;;;6.47;4.10;;;;;;;19.36;48.24;101521.44;4899807;29;20037;-81
2022/08/13 02:19:52;;;;;;;8.60;4.00;;;;;;;19.39;47.94;101525.66;4917060;29;20032;-80
2022/08/13 02:22:18;;;;;;;5.45;3.55;;;;;;;19.34;48.32;101523.44;4915986;29;20079;-80
2022/08/13 02:24:52;;;;;;;7.60;3.92;;;;;;;19.27;48.61;101532.31;4891600;29;20037;-80
2022/08/13 02:27:21;;;;;;;5.68;3.65;;;;;;;19.24;48.65;101522.72;4904100;29;20079;-81
2022/08/13 02:29:49;;;;;;;6.03;3.67;;;;;;;19.22;49.07;101528.25;4897125;29;20065;-81
2022/08/13 02:32:18;;;;;;;5.05;3.70;;;;;;;19.17;49.21;101527.88;4916449;29;20039;-82
2022/08/13 02:34:50;;;;;;;;;;;;;;;19.31;46.85;101523.75;4909427;29;20548;-81
2022/08/13 02:37:21;;;;;;;7.85;3.80;;;;;;;19.14;49.18;101522.81;4899681;29;19927;-81
2022/08/13 02:39:50;;;;;;;6.07;3.63;;;;;;;19.07;49.38;101527.13;4911647;29;20051;-80
2022/08/13 02:42:16;;;;;;;7.55;3.83;;;;;;;19.05;49.21;101518.34;4917288;29;20503;-81
2022/08/13 02:44:46;;;;;;;7.05;3.92;;;;;;;19.01;48.71;101525.06;4891982;29;20103;-81
2022/08/13 02:47:13;;;;;;;8.13;4.00;;;;;;;18.96;49.65;101524.69;4917032;29;20035;-81
2022/08/13 02:49:40;;;;;;;8.60;3.80;;;;;;;18.97;48.99;101524.53;4900611;29;20028;-81
2022/08/13 02:52:06;;;;;;;9.30;4.00;;;;;;;18.92;49.41;101521.47;4916737;29;20544;-81
2022/08/13 02:54:33;;;;;;;9.93;4.20;;;;;;;18.89;49.74;101526.31;4902189;29;20024;-81
2022/08/13 02:56:58;;;;;;;8.50;3.80;;;;;;;18.87;49.60;101521.09;4898484;29;20036;-80
2022/08/13 02:59:24;;;;;;;8.35;3.97;;;;;;;18.81;50.28;101525.19;4929414;29;20024;-80
2022/08/13 03:01:51;;;;;;;11.43;4.07;;;;;;;18.77;50.29;101533.72;4917547;29;20029;-78
2022/08/13 03:04:16;;;;;;;11.45;4.32;;;;;;;18.74;50.37;101526.81;4920076;29;20041;-80
2022/08/13 03:06:44;;;;;;;8.75;4.93;;;;;;;18.67;50.24;101526.59;4928854;29;20036;-79
2022/08/13 03:09:09;;;;;;;17.02;4.75;;;;;;;18.62;50.65;101534.28;4917841;29;20059;-79
2022/08/13 03:11:36;;;;;;;12.30;4.88;;;;;;;18.61;50.45;101527.19;4924907;29;20032;-80
2022/08/13 03:14:04;;;;;;;15.30;4.65;;;;;;;18.60;50.63;101530.03;4936309;29;20047;-79
2022/08/13 03:16:30;;;;;;;15.47;5.40;;;;;;;18.59;50.66;101534.59;4923777;29;20024;-79
2022/08/13 03:18:57;;;;;;;16.60;5.07;;;;;;;18.53;50.60;101535.19;4889601;29;20603;-80
2022/08/13 03:21:35;;;;;;;15.02;5.03;;;;;;;18.52;50.56;101530.84;4901427;29;20046;-79
2022/08/13 03:24:03;;;;;;;14.03;5.00;;;;;;;18.51;50.55;101522.91;4897907;29;20040;-79
2022/08/13 03:26:30;;;;;;;16.58;5.20;;;;;;;18.46;50.92;101528.75;4899433;29;20028;-79
2022/08/13 03:28:55;;;;;;;12.98;5.47;;;;;;;18.43;51.28;101534.41;4899628;29;20035;-80
2022/08/13 03:31:21;;;;;;;14.32;5.07;;;;;;;18.42;51.31;101535.44;4897098;29;20133;-80
2022/08/13 03:33:47;;;;;;;10.68;4.60;;;;;;;18.43;51.12;101535.25;4902846;29;20539;-80
2022/08/13 03:36:14;;;;;;;9.48;4.50;;;;;;;18.37;50.86;101530.50;4905547;29;20052;-80
2022/08/13 03:38:40;;;;;;;11.63;4.88;;;;;;;18.34;51.01;101535.34;4890736;29;20027;-80
2022/08/13 03:41:11;;;;;;;6.95;4.13;;;;;;;18.30;51.63;101532.97;4906207;29;20037;-81
2022/08/13 03:43:45;;;;;;;11.35;4.55;;;;;;;18.25;51.07;101532.56;4910523;29;20024;-81
2022/08/13 03:46:16;;;;;;;11.77;5.15;;;;;;;18.22;51.67;101534.69;4909293;29;20088;-81
2022/08/13 03:48:43;;;;;;;8.68;4.70;;;;;;;18.23;51.33;101533.72;4892554;29;20055;-81
2022/08/13 03:51:08;;;;;;;8.85;4.80;;;;;;;18.15;51.66;101531.75;4916331;29;20056;-80
2022/08/13 03:53:35;;;;;;;11.63;4.82;;;;;;;18.10;51.76;101534.91;4894363;29;20468;-80
2022/08/13 03:56:01;;;;;;;7.68;4.78;;;;;;;18.03;52.44;101525.75;4892105;29;20041;-80
2022/08/13 03:58:28;;;;;;;11.15;4.80;;;;;;;18.06;52.13;101530.00;4904766;29;20354;-80
2022/08/13 04:00:55;;;;;;;7.97;4.38;;;;;;;18.03;52.24;101527.59;4900647;29;20032;-80
2022/08/13 04:03:28;;;;;;;9.30;4.90;;;;;;;18.02;52.19;101525.88;4907875;29;20062;-81
2022/08/13 04:05:56;;;;;;;7.88;4.50;;;;;;;17.98;52.59;101529.88;4909744;29;20080;-80
2022/08/13 04:08:21;;;;;;;8.80;4.80;;;;;;;17.97;52.46;101528.19;4898350;29;20120;-80
2022/08/13 04:10:47;;;;;;;6.45;4.63;;;;;;;17.92;52.34;101526.81;4914665;29;20081;-80
2022/08/13 04:13:19;;;;;;;11.63;4.60;;;;;;;17.88;52.51;101524.56;4919249;29;20036;-80
2022/08/13 04:15:45;;;;;;;8.25;4.95;;;;;;;17.85;53.07;101524.81;4904197;29;20032;-81
2022/08/13 04:18:12;;;;;;;12.07;5.05;;;;;;;17.81;53.10;101521.59;4910421;29;20035;-81
2022/08/13 04:20:39;;;;;;;9.75;4.57;;;;;;;17.80;53.16;101524.41;4889484;29;20039;-81
2022/08/13 04:23:08;;;;;;;8.10;4.38;;;;;;;17.76;53.19;101524.72;4901557;29;20430;-80
2022/08/13 04:25:35;;;;;;;8.80;4.63;;;;;;;17.82;52.53;101530.47;4907312;29;20051;-79
2022/08/13 04:28:01;;;;;;;10.38;4.85;;;;;;;17.78;53.10;101532.63;4910490;29;20032;-81
2022/08/13 04:30:27;;;;;;;10.50;4.40;;;;;;;17.74;53.30;101537.47;4901964;29;20030;-80
2022/08/13 04:32:53;;;;;;;10.50;4.63;;;;;;;17.71;52.94;101540.44;4911456;29;20078;-80
2022/08/13 04:35:18;;;;;;;8.15;4.45;;;;;;;17.70;53.55;101545.94;4918915;29;20417;-81
2022/08/13 04:37:43;;;;;;;5.57;4.15;;;;;;;17.69;53.24;101542.44;4919890;29;20434;-81
2022/08/13 04:40:10;;;;;;;9.45;4.30;;;;;;;17.70;53.09;101541.44;4909361;29;20033;-82
2022/08/13 04:42:53;;;;;;;10.05;5.35;;;;;;;17.71;52.32;101540.44;4910595;29;20765;-81
2022/08/13 04:45:19;;;;;;;8.15;4.50;;;;;;;17.66;52.69;101542.72;4909058;29;20478;-81
2022/08/13 04:47:45;;;;;;;8.98;4.70;;;;;;;17.69;52.63;101531.69;4919563;29;20034;-81
2022/08/13 04:50:11;;;;;;;7.35;4.20;;;;;;;17.67;52.82;101540.88;4910254;29;20103;-81
2022/08/13 04:52:38;;;;;;;7.25;4.30;;;;;;;17.69;51.85;101539.75;4915346;29;20144;-80
2022/08/13 04:55:06;;;;;;;5.70;4.25;;;;;;;17.69;52.14;101539.75;4888519;29;20041;-81
2022/08/13 04:57:32;;;;;;;9.15;4.57;;;;;;;17.66;52.24;101536.50;4900739;29;20025;-77
2022/08/13 04:59:57;;;;;;;5.50;4.20;;;;;;;17.71;52.23;101535.06;4906876;29;20124;-79
2022/08/13 05:02:23;;;;;;;8.85;4.22;;;;;;;17.73;52.84;101538.44;4906806;29;20060;-79
2022/08/13 05:04:49;;;;;;;7.07;4.30;;;;;;;17.70;52.15;101540.56;4919247;29;20103;-80
2022/08/13 05:07:15;;;;;;;10.98;4.40;;;;;;;17.73;52.54;101546.50;4906601;29;20036;-80
2022/08/13 05:09:40;;;;;;;6.63;4.43;;;;;;;17.74;52.58;101550.06;4917642;29;20047;-80
2022/08/13 05:12:07;;;;;;;9.25;4.75;;;;;;;17.76;52.07;101553.44;4906305;29;20402;-81
2022/08/13 05:14:33;;;;;;;8.57;4.47;;;;;;;17.76;52.60;101548.88;4899896;29;20036;-80
2022/08/13 05:17:03;;;;;;;8.65;4.30;;;;;;;17.81;52.40;101551.16;4897326;29;20040;-81
2022/08/13 05:19:28;;;;;;;13.60;4.80;;;;;;;17.85;52.41;101549.88;4908171;29;20561;-78
2022/08/13 05:21:54;;;;;;;7.77;4.40;;;;;;;17.85;52.07;101544.50;4900704;29;20123;-80
2022/08/13 05:24:21;;;;;;;10.13;4.60;;;;;;;17.89;52.34;101539.69;4898694;29;20646;-80
2022/08/13 05:26:47;;;;;;;5.13;4.60;;;;;;;17.92;52.13;101550.16;4904712;29;20028;-80
2022/08/13 05:29:13;;;;;;;7.97;4.65;;;;;;;17.93;52.98;101552.66;4890850;29;20040;-80
2022/08/13 05:31:39;;;;;;;11.00;4.38;;;;;;;17.96;52.09;101554.22;4906625;29;20032;-80
2022/08/13 05:34:05;;;;;;;6.68;4.38;;;;;;;17.98;52.43;101546.84;4906484;29;20031;-80
2022/08/13 05:36:31;;;;;;;6.90;4.25;;;;;;;18.00;52.28;101549.38;4917458;29;20032;-78
2022/08/13 05:38:58;;;;;;;7.20;5.00;;;;;;;18.06;52.03;101556.88;4895764;29;20044;-79
2022/08/13 05:41:25;;;;;;;7.75;4.43;;;;;;;18.11;51.82;101552.72;4911500;29;20508;-79
2022/08/13 05:43:51;;;;;;;8.05;4.57;;;;;;;18.15;52.16;101553.25;4916620;29;20031;-79
2022/08/13 05:46:17;;;;;;;8.82;4.30;;;;;;;18.20;51.71;101555.50;4894942;29;20028;-80
2022/08/13 05:48:55;;;;;;;12.23;4.30;;;;;;;18.25;51.41;101553.22;4902361;29;20028;-81
2022/08/13 05:51:28;;;;;;;5.38;4.65;;;;;;;18.35;52.04;101555.84;4918775;29;20056;-82
2022/08/13 05:53:57;;;;;;;7.55;4.35;;;;;;;18.41;51.68;101556.09;4910224;29;20092;-82
2022/08/13 05:56:23;;;;;;;9.70;4.60;;;;;;;18.45;51.69;101557.50;4918876;29;20031;-83
2022/08/13 05:58:49;;;;;;;9.60;4.20;;;;;;;18.51;51.80;101550.66;4899777;29;20041;-83
2022/08/13 06:04:00;;;;;;;7.60;4.70;;;;;;;18.64;52.30;101550.28;4906706;29;20390;-84
2022/08/13 06:06:25;;;;;;;6.70;4.00;;;;;;;18.75;52.25;101554.56;4905819;29;20120;-83
2022/08/13 06:08:56;;;;;;;9.52;4.30;;;;;;;18.81;51.76;101548.59;4913720;29;20088;-84
2022/08/13 06:11:21;;;;;;;8.73;4.30;;;;;;;18.87;51.52;101550.69;4881391;29;20036;-84
2022/08/13 06:13:48;;;;;;;9.25;4.10;;;;;;;18.94;51.69;101549.06;4895636;29;20028;-83
2022/08/13 06:16:17;;;;;;;15.18;4.60;;;;;;;19.02;51.29;101551.00;4899203;29;20035;-82
2022/08/13 06:18:44;;;;;;;10.98;3.92;;;;;;;19.11;50.67;101546.50;4905642;29;20029;-82
2022/08/13 06:21:12;;;;;;;7.05;4.22;;;;;;;19.18;50.66;101540.31;4898957;29;20035;-82
2022/08/13 06:23:39;;;;;;;9.27;3.95;;;;;;;19.25;50.42;101545.09;4899231;29;20112;-83
2022/08/13 06:26:06;;;;;;;9.60;3.88;;;;;;;19.33;50.23;101543.28;4906318;29;20453;-82
2022/08/13 06:28:33;;;;;;;9.65;3.92;;;;;;;19.45;49.20;101543.03;4917805;29;20602;-82
2022/08/13 06:31:04;;;;;;;9.45;4.20;;;;;;;19.55;49.47;101547.31;4913487;29;20060;-83
2022/08/13 06:33:32;;;;;;;8.50;4.30;;;;;;;19.64;49.46;101540.13;4880822;29;20418;-82
2022/08/13 06:36:01;;;;;;;6.90;3.95;;;;;;;19.78;48.79;101544.94;4885158;29;20481;-82
2022/08/13 06:38:50;;;;;;;11.82;3.90;;;;;;;19.89;48.29;101548.38;4903359;29;20036;-82
2022/08/13 06:41:19;;;;;;;7.50;3.95;;;;;;;20.05;48.47;101552.97;4900798;29;20040;-82
2022/08/13 06:43:48;;;;;;;6.70;4.10;;;;;;;20.18;48.00;101549.81;4880352;29;20033;-82
2022/08/13 06:46:16;;;;;;;11.05;4.00;;;;;;;20.34;47.65;101550.72;4894841;29;20028;-82
2022/08/13 06:48:41;;;;;;;4.63;3.53;;;;;;;20.47;47.62;101547.53;4898241;29;20080;-82
2022/08/13 06:51:11;;;;;;;9.25;4.07;;;;;;;20.57;46.52;101550.09;4899196;29;20024;-83
2022/08/13 06:53:40;;;;;;;6.13;3.67;;;;;;;20.70;46.61;101553.19;4890830;29;20056;-83
2022/08/13 06:56:08;;;;;;;8.88;3.90;;;;;;;20.80;46.13;101554.84;4892448;29;20033;-83
2022/08/13 06:58:36;;;;;;;7.53;3.80;;;;;;;20.93;45.77;101551.66;4916607;29;20043;-81
2022/08/13 07:01:03;;;;;;;8.38;3.42;;;;;;;21.11;46.40;101551.50;4918005;29;20028;-83
2022/08/13 07:03:31;;;;;;;9.95;3.75;;;;;;;21.23;44.92;101553.69;4892246;29;20033;-82
2022/08/13 07:05:57;;;;;;;9.20;3.55;;;;;;;21.47;45.14;101554.69;4909200;29;20033;-82
2022/08/13 07:08:27;;;;;;;10.68;3.58;;;;;;;21.65;44.68;101551.78;4897051;29;20025;-81
2022/08/13 07:13:45;;;;;;;7.13;3.28;;;;;;;22.23;42.90;101555.06;4917591;29;20047;-82
2022/08/13 07:16:16;;;;;;;5.45;3.15;;;;;;;22.54;42.00;101556.97;4894065;29;20037;-82
2022/08/13 07:18:46;;;;;;;7.90;3.65;;;;;;;22.78;41.75;101558.66;4907776;29;20028;-81
2022/08/13 07:21:14;;;;;;;4.70;3.05;;;;;;;23.14;41.18;101554.50;4911253;29;20116;-82
2022/08/13 07:23:42;;;;;;;7.25;2.92;;;;;;;23.43;40.11;101553.69;4898484;29;20032;-82
2022/08/13 07:26:12;;;;;;;7.40;3.47;;;;;;;23.83;39.87;101557.00;4895878;29;20100;-81
2022/08/13 07:28:38;;;;;;;4.93;2.90;;;;;;;24.14;39.33;101543.22;4898168;29;20427;-82
2022/08/13 07:31:07;;;;;;;7.85;2.83;;;;;;;24.53;38.16;101547.44;4893868;29;20060;-81
2022/08/13 07:33:35;;;;;;;;;;;;;;;24.63;39.71;101551.72;4890587;29;20092;-83
2022/08/13 07:36:12;;;;;;;;;;;;;;;24.94;39.54;101554.94;4895064;29;20332;-82
2022/08/13 07:38:39;;;;;;;5.93;3.47;;;;;;;25.41;36.47;101551.78;4898937;29;19922;-82
2022/08/13 07:41:05;;;;;;;4.35;2.63;;;;;;;25.68;35.70;101555.53;4898818;29;20050;-82
2022/08/13 07:43:39;;;;;;;4.32;2.63;;;;;;;26.01;35.18;101554.88;4890367;29;20028;-81
2022/08/13 07:46:12;;;;;;;5.20;2.47;;;;;;;26.20;35.50;101556.84;4894353;29;20047;-82
2022/08/13 07:48:43;;;;;;;6.88;2.63;;;;;;;26.63;34.57;101557.56;4898367;29;20033;-81
2022/08/13 07:51:15;;;;;;;4.18;2.45;;;;;;;26.74;33.80;101557.00;4895270;29;20071;-82
2022/08/13 07:53:41;;;;;;;6.03;2.65;;;;;;;27.05;32.99;101553.66;4917989;29;20035;-82
2022/08/13 07:56:07;;;;;;;7.65;2.53;;;;;;;27.35;33.02;101553.25;4918169;29;20028;-82
2022/08/13 07:58:34;;;;;;;4.50;2.10;;;;;;;27.53;32.19;101555.31;4890408;29;20036;-83
2022/08/13 08:01:00;;;;;;;4.40;2.05;;;;;;;27.91;31.80;101549.09;4890285;29;20033;-82
2022/08/13 08:03:33;;;;;;;7.18;2.85;;;;;;;28.06;31.43;101554.31;4901502;29;20028;-83
2022/08/13 08:05:59;;;;;;;3.72;1.95;;;;;;;28.28;30.81;101549.41;4912451;29;20485;-83
2022/08/13 08:08:26;;;;;;;4.85;1.95;;;;;;;28.48;30.10;101559.34;4921114;29;20024;-84
2022/08/13 08:10:54;;;;;;;9.40;2.42;;;;;;;28.70;30.18;101538.84;4920431;29;20075;-82
2022/08/13 08:13:24;;;;;;;7.28;2.20;;;;;;;28.85;29.97;101549.47;4906963;29;20021;-82
2022/08/13 08:15:49;;;;;;;6.75;2.28;;;;;;;28.97;29.75;101555.03;4896282;29;20031;-82
2022/08/13 08:18:17;;;;;;;6.65;1.90;;;;;;;29.21;30.86;101553.41;4900308;29;20446;-82
2022/08/13 08:20:44;;;;;;;6.65;2.08;;;;;;;29.23;30.38;101551.28;4909594;29;20107;-81
2022/08/13 08:23:10;;;;;;;5.35;1.90;;;;;;;29.65;29.19;101559.69;4914993;29;20028;-81
2022/08/13 08:25:38;;;;;;;4.63;1.88;;;;;;;29.93;28.80;101557.50;4919719;29;20023;-82
2022/08/13 08:28:04;;;;;;;3.75;1.90;;;;;;;30.05;29.67;101556.50;4906866;29;20036;-82
2022/08/13 08:30:29;;;;;;;5.03;2.00;;;;;;;30.33;28.84;101554.25;4910602;29;20042;-83
2022/08/13 08:32:56;;;;;;;7.45;2.20;;;;;;;30.55;27.39;101552.66;4902419;29;20292;-82
2022/08/13 08:35:23;;;;;;;5.47;1.90;;;;;;;30.71;28.01;101553.91;4901538;29;20033;-82
2022/08/13 08:43:35;;;;;;;3.17;1.50;;;;;;;31.33;26.50;101560.91;4900879;29;20092;-82
2022/08/13 08:46:04;;;;;;;5.10;1.80;;;;;;;31.51;26.41;101558.06;4895547;29;20033;-82
2022/08/13 08:48:32;;;;;;;4.63;1.70;;;;;;;31.71;26.14;101567.84;4898736;29;20402;-83
2022/08/13 08:50:59;;;;;;;3.85;1.80;;;;;;;31.92;25.49;101558.09;4898790;29;20088;-83
2022/08/13 08:53:26;;;;;;;7.30;1.70;;;;;;;32.02;25.83;101554.72;4888933;29;20501;-82
2022/08/13 08:55:53;;;;;;;3.63;1.60;;;;;;;31.99;25.17;101553.28;4901485;29;20033;-82
2022/08/13 08:58:19;;;;;;;5.88;1.75;;;;;;;32.26;24.93;101550.84;4899278;29;20092;-83
2022/08/13 09:00:49;;;;;;;5.22;1.90;;;;;;;32.66;24.70;101556.50;4892230;29;20032;-82
2022/08/13 09:03:21;;;;;;;3.70;1.70;;;;;;;32.95;25.45;101549.03;4905489;29;20048;-83
2022/08/13 09:05:47;;;;;;;4.07;1.52;;;;;;;33.17;24.14;101551.88;4907501;29;20152;-83
2022/08/13 09:08:15;;;;;;;6.40;1.60;;;;;;;33.15;24.01;101545.75;4901843;29;20036;-83
2022/08/13 09:10:44;;;;;;;3.25;1.60;;;;;;;33.41;23.81;101549.75;4905356;29;20033;-83
2022/08/13 09:13:19;;;;;;;4.78;1.70;;;;;;;33.66;24.56;101543.75;4905797;29;20031;-83
2022/08/13 09:15:50;;;;;;;6.65;1.70;;;;;;;33.87;22.92;101544.84;4898778;29;20060;-83
2022/08/13 09:18:18;;;;;;;6.25;1.63;;;;;;;34.00;22.72;101537.28;4893402;29;20024;-84
2022/08/13 09:20:48;;;;;;;8.23;1.88;;;;;;;34.15;23.45;101537.47;4911122;29;20100;-83
2022/08/13 09:23:15;;;;;;;4.43;1.50;;;;;;;34.42;22.14;101531.13;4903784;29;20040;-82
2022/08/13 09:25:51;;;;;;;5.50;1.60;;;;;;;34.72;22.32;101535.25;4914520;29;20024;-83
2022/08/13 09:28:23;;;;;;;4.43;1.42;;;;;;;34.77;22.61;101538.09;4902599;29;20037;-82
2022/08/13 09:30:51;;;;;;;5.05;1.55;;;;;;;34.77;21.40;101541.66;4905097;29;20024;-83
2022/08/13 09:33:18;;;;;;;1.50;1.23;;;;;;;34.69;21.78;101542.16;4922531;29;20047;-81
2022/08/13 09:35:44;;;;;;;4.67;1.70;;;;;;;35.01;21.44;101533.03;4941232;29;20040;-81
2022/08/13 09:38:10;;;;;;;2.15;1.40;;;;;;;35.47;20.83;101538.84;4942388;29;20080;-83
2022/08/13 09:40:44;;;;;;;5.97;1.30;;;;;;;35.52;21.14;101527.84;4938570;29;20032;-81
2022/08/13 09:43:17;;;;;;;4.88;1.50;;;;;;;35.68;20.16;101530.66;4908841;29;20100;-82
2022/08/13 09:45:43;;;;;;;2.80;1.15;;;;;;;35.82;20.00;101534.59;4913870;29;20076;-81
2022/08/13 09:48:08;;;;;;;3.83;1.45;;;;;;;35.72;19.88;101527.09;4921322;29;20036;-81
2022/08/13 09:50:35;;;;;;;2.30;1.30;;;;;;;35.71;19.98;101535.66;4924648;29;20044;-82
2022/08/13 09:53:01;;;;;;;3.78;1.40;;;;;;;35.69;19.67;101533.16;4920464;29;20049;-82
2022/08/13 09:55:26;;;;;;;3.27;1.80;;;;;;;35.86;20.53;101521.91;4916644;29;20040;-81
2022/08/13 09:57:55;;;;;;;2.88;1.33;;;;;;;36.06;20.54;101514.78;4890899;29;20033;-82
2022/08/13 10:00:22;;;;;;;7.18;1.27;;;;;;;36.64;19.93;101511.78;4910331;29;20024;-82
2022/08/13 10:02:50;;;;;;;3.78;1.30;;;;;;;36.74;18.79;101511.00;4920793;29;20055;-82
2022/08/13 10:05:18;;;;;;;2.72;1.08;;;;;;;36.75;17.83;101509.91;4919973;29;20068;-81
2022/08/13 10:07:43;;;;;;;2.47;0.90;;;;;;;36.95;18.74;101509.03;4907611;29;20039;-82
2022/08/13 10:10:08;;;;;;;1.10;1.00;;;;;;;37.01;18.19;101508.75;4907104;29;20043;-82
2022/08/13 10:12:34;;;;;;;2.17;0.80;;;;;;;37.23;17.51;101502.09;4919455;29;20028;-82
2022/08/13 10:14:59;;;;;;;2.97;0.87;;;;;;;37.66;18.25;101499.72;4905967;29;20055;-82
2022/08/13 10:17:26;;;;;;;3.07;0.97;;;;;;;37.66;16.93;101496.94;4894298;29;20753;-81
2022/08/13 10:19:51;;;;;;;4.40;1.27;;;;;;;37.71;16.93;101502.47;4912081;29;20107;-81
2022/08/13 10:22:16;;;;;;;3.67;1.00;;;;;;;37.53;16.55;101498.34;4906494;29;20131;-80
2022/08/13 10:24:42;;;;;;;1.87;0.90;;;;;;;37.47;16.84;101491.16;4917656;29;20032;-81
2022/08/13 10:27:07;;;;;;;1.60;0.70;;;;;;;37.63;17.60;101489.16;4918196;29;20028;-81
2022/08/13 10:29:32;;;;;;;4.40;1.10;;;;;;;37.86;16.22;101493.22;4917430;29;20954;-81
2022/08/13 10:31:58;;;;;;;2.57;0.87;;;;;;;38.24;16.41;101481.63;4905506;29;20107;-83
2022/08/13 10:34:24;;;;;;;3.13;0.93;;;;;;;38.26;15.80;101488.56;4903393;29;20406;-82
2022/08/13 10:36:50;;;;;;;21.25;1.15;;;;;;;38.35;15.50;101479.59;4905041;29;20033;-82
2022/08/13 10:39:15;;;;;;;2.25;0.85;;;;;;;38.52;16.09;101487.50;4894020;29;20029;-82
2022/08/13 10:41:42;;;;;;;2.25;0.80;;;;;;;38.41;15.11;101481.22;4907304;29;20091;-82
2022/08/13 10:44:08;;;;;;;1.23;0.90;;;;;;;38.58;15.74;101475.25;4900637;29;20044;-83
2022/08/13 10:46:33;;;;;;;4.03;1.00;;;;;;;38.66;15.24;101480.19;4911940;29;20133;-82
2022/08/13 10:48:59;;;;;;;0.85;0.63;;;;;;;38.77;14.82;101481.75;4902955;29;20040;-81
2022/08/13 10:51:26;;;;;;;3.28;0.90;;;;;;;39.10;15.50;101475.59;4899018;29;20036;-81
2022/08/13 10:53:55;;;;;;;0.85;0.60;;;;;;;38.88;14.67;101487.19;4902320;29;20514;-81
2022/08/13 10:56:21;;;;;;;1.70;0.73;;;;;;;38.65;15.13;101472.97;4891509;29;20478;-81
2022/08/13 10:58:47;;;;;;;3.42;0.93;;;;;;;38.52;15.09;101468.91;4891538;29;20057;-82
2022/08/13 11:01:12;;;;;;;3.53;0.80;;;;;;;39.18;15.34;101466.59;4882236;29;20101;-82
2022/08/13 11:03:38;;;;;;;2.13;0.90;;;;;;;39.04;15.34;101463.69;4894291;29;20033;-82
2022/08/13 11:06:06;;;;;;;2.55;0.90;;;;;;;39.04;14.60;101464.50;4908746;29;20051;-82
2022/08/13 11:08:38;;;;;;;6.22;0.65;;;;;;;39.27;15.24;101464.00;4910160;29;20492;-82
2022/08/13 11:11:04;;;;;;;3.17;0.80;;;;;;;39.08;14.35;101472.28;4897007;29;20389;-82
2022/08/13 11:13:33;;;;;;;0.68;0.68;;;;;;;39.18;15.58;101466.59;4906142;29;20445;-81
2022/08/13 11:16:01;;;;;;;0.75;0.60;;;;;;;39.23;14.70;101466.53;4911316;29;20051;-83
2022/08/13 11:18:28;;;;;;;0.98;0.70;;;;;;;39.31;14.27;101465.88;4912531;29;20478;-81
2022/08/13 11:21:03;;;;;;;6.28;0.80;;;;;;;39.10;13.93;101459.75;4905513;29;20084;-81
2022/08/13 11:23:29;;;;;;;2.75;0.80;;;;;;;39.00;14.32;101457.06;4902750;29;20029;-82
2022/08/13 11:25:55;;;;;;;2.80;0.70;;;;;;;38.93;14.28;101460.19;4914724;29;20500;-81
2022/08/13 11:28:20;;;;;;;2.50;1.00;;;;;;;39.18;14.45;101453.53;4902362;29;20049;-81
2022/08/13 11:30:50;;;;;;;0.60;0.60;;;;;;;39.17;13.98;101449.13;4912463;29;20477;-81
2022/08/13 11:33:15;;;;;;;5.80;0.88;;;;;;;39.31;14.32;101446.44;4924017;29;20032;-81
2022/08/13 11:35:41;;;;;;;3.17;1.13;;;;;;;39.29;15.38;101445.91;4923873;29;20115;-81
2022/08/13 11:38:12;;;;;;;2.75;0.80;;;;;;;39.42;14.43;101449.88;4910157;29;20056;-81
2022/08/13 11:40:39;;;;;;;1.75;0.82;;;;;;;39.16;14.18;101439.13;4905892;29;20040;-81
2022/08/13 11:43:05;;;;;;;1.63;0.70;;;;;;;39.14;14.58;101440.53;4923520;29;20024;-80
2022/08/13 11:45:31;;;;;;;2.90;0.93;;;;;;;38.92;14.12;101435.50;4914973;29;20489;-81
2022/08/13 11:47:56;;;;;;;1.67;0.60;;;;;;;39.02;14.21;101436.22;4916817;29;20038;-81